createdAt,value
2019-06-07T00:00:45.405Z,13.30
2019-06-07T00:03:23.885Z,12.83
2019-06-07T00:05:43.999Z,14.07
2019-06-07T00:08:21.334Z,13.03
2019-06-07T00:10:42.884Z,12.90
2019-06-07T00:13:12.910Z,10.50
2019-06-07T00:15:41.462Z,13.80
2019-06-07T00:18:11.182Z,10.20
2019-06-07T00:20:40.104Z,10.43
2019-06-07T00:23:10.997Z,13.97
2019-06-07T00:25:38.770Z,12.47
2019-06-07T00:28:08.179Z,11.90
2019-06-07T00:30:50.658Z,14.53
2019-06-07T00:33:06.740Z,14.73
2019-06-07T00:35:35.196Z,16.83
2019-06-07T00:38:03.592Z,14.97
2019-06-07T00:40:32.427Z,15.70
2019-06-07T00:43:00.877Z,14.50
2019-06-07T00:45:29.388Z,14.07
2019-06-07T00:47:57.880Z,16.90
2019-06-07T00:50:26.413Z,14.20
2019-06-07T00:55:27.490Z,14.53
2019-06-07T00:57:55.331Z,15.43
2019-06-07T01:00:25.574Z,15.40
2019-06-07T01:02:54.219Z,13.30
2019-06-07T01:05:30.751Z,14.93
2019-06-07T01:07:52.800Z,18.53
2019-06-07T01:10:36.514Z,13.63
2019-06-07T01:12:51.477Z,15.93
2019-06-07T01:15:28.889Z,13.57
2019-06-07T01:18:33.492Z,15.27
2019-06-07T01:20:26.651Z,16.30
2019-06-07T01:22:54.679Z,15.93
2019-06-07T01:25:26.159Z,14.57
2019-06-07T01:27:53.343Z,17.90
2019-06-07T01:30:26.027Z,17.43
2019-06-07T01:32:52.859Z,16.07
2019-06-07T01:35:22.096Z,15.03
2019-06-07T01:37:51.593Z,14.20
2019-06-07T01:40:23.476Z,14.00
2019-06-07T01:42:50.445Z,14.57
2019-06-07T01:45:19.512Z,14.70
2019-06-07T01:47:48.479Z,17.87
2019-06-07T01:50:17.763Z,16.73
2019-06-07T01:52:47.206Z,19.13
2019-06-07T01:55:15.917Z,18.60
2019-06-07T01:57:48.420Z,19.53
2019-06-07T02:00:14.726Z,19.07
2019-06-07T02:02:43.212Z,18.50
2019-06-07T02:05:12.169Z,19.40
2019-06-07T02:07:40.585Z,18.07
2019-06-07T02:10:09.540Z,15.73
2019-06-07T02:12:43.238Z,19.40
2019-06-07T02:15:09.009Z,18.00
2019-06-07T02:17:38.068Z,19.33
2019-06-07T02:20:07.639Z,21.20
2019-06-07T02:22:36.044Z,16.27
2019-06-07T02:25:35.065Z,17.57
2019-06-07T02:27:37.293Z,19.17
2019-06-07T02:30:37.127Z,14.57
2019-06-07T02:32:38.317Z,17.20
2019-06-07T02:35:06.999Z,18.10
2019-06-07T02:37:36.946Z,15.93
2019-06-07T02:40:08.348Z,18.20
2019-06-07T02:42:41.913Z,17.13
2019-06-07T02:45:10.351Z,20.37
2019-06-07T02:47:38.924Z,18.10
2019-06-07T02:50:10.287Z,16.33
2019-06-07T02:52:40.673Z,16.37
2019-06-07T02:55:10.156Z,16.47
2019-06-07T02:57:41.628Z,15.27
2019-06-07T03:00:40.378Z,15.70
2019-06-07T03:02:41.881Z,13.93
2019-06-07T03:05:10.900Z,13.63
2019-06-07T03:07:44.886Z,15.77
2019-06-07T03:10:11.041Z,14.90
2019-06-07T03:12:43.033Z,15.70
2019-06-07T03:15:30.087Z,14.93
2019-06-07T03:17:45.074Z,16.17
2019-06-07T03:20:15.697Z,19.50
2019-06-07T03:22:44.099Z,14.67
2019-06-07T03:25:13.077Z,16.70
2019-06-07T03:27:53.760Z,18.40
2019-06-07T03:30:38.920Z,18.17
2019-06-07T03:32:52.472Z,19.47
2019-06-07T03:35:20.888Z,19.00
2019-06-07T03:37:49.376Z,21.50
2019-06-07T03:40:17.811Z,20.80
2019-06-07T03:42:46.231Z,21.77
2019-06-07T03:45:14.686Z,20.67
2019-06-07T03:47:43.408Z,18.90
2019-06-07T03:50:11.978Z,18.70
2019-06-07T03:52:41.636Z,17.13
2019-06-07T03:55:10.514Z,18.87
2019-06-07T03:58:29.094Z,18.60
2019-06-07T04:00:09.749Z,18.77
2019-06-07T04:02:41.758Z,18.93
2019-06-07T04:05:08.435Z,19.93
2019-06-07T04:07:43.355Z,16.77
2019-06-07T04:10:07.266Z,17.20
2019-06-07T04:12:39.973Z,15.63
2019-06-07T04:15:06.375Z,16.60
2019-06-07T04:17:37.169Z,17.50
2019-06-07T04:20:08.984Z,15.00
2019-06-07T04:22:42.039Z,17.40
2019-06-07T04:25:10.815Z,17.60
2019-06-07T04:27:40.992Z,21.13
2019-06-07T04:30:11.931Z,21.20
2019-06-07T04:32:44.746Z,16.67
2019-06-07T04:35:10.819Z,14.60
2019-06-07T04:37:41.560Z,18.30
2019-06-07T04:40:10.353Z,17.90
2019-06-07T04:42:44.801Z,18.97
2019-06-07T04:45:32.553Z,20.20
2019-06-07T04:47:42.864Z,18.90
2019-06-07T04:50:12.076Z,18.50
2019-06-07T04:52:44.419Z,19.00
2019-06-07T04:55:10.808Z,21.03
2019-06-07T04:57:40.372Z,19.60
2019-06-07T05:00:46.308Z,17.70
2019-06-07T05:02:42.415Z,20.80
2019-06-07T05:05:09.959Z,23.43
2019-06-07T05:07:40.784Z,21.90
2019-06-07T05:10:08.646Z,20.17
2019-06-07T05:12:41.706Z,23.63
2019-06-07T05:15:07.552Z,20.63
2019-06-07T05:17:37.056Z,19.70
2019-06-07T05:20:06.975Z,18.13
2019-06-07T05:22:42.074Z,22.33
2019-06-07T05:25:06.062Z,19.63
2019-06-07T05:27:36.419Z,18.63
2019-06-07T05:30:13.616Z,20.03
2019-06-07T05:32:41.974Z,20.83
2019-06-07T05:35:09.479Z,22.57
2019-06-07T05:37:40.877Z,20.20
2019-06-07T05:40:09.142Z,18.57
2019-06-07T05:42:42.685Z,22.40
2019-06-07T05:45:08.263Z,18.57
2019-06-07T05:47:40.892Z,24.20
2019-06-07T05:50:38.050Z,24.63
2019-06-07T05:52:41.713Z,16.47
2019-06-07T05:55:07.705Z,18.30
2019-06-07T05:57:40.338Z,18.23
2019-06-07T06:00:07.910Z,20.10
2019-06-07T06:02:58.595Z,18.20
2019-06-07T06:05:07.228Z,16.87
2019-06-07T06:07:38.864Z,15.40
2019-06-07T06:10:08.013Z,15.63
2019-06-07T06:12:40.831Z,14.83
2019-06-07T06:15:07.557Z,16.57
2019-06-07T06:17:37.778Z,20.40
2019-06-07T06:20:06.970Z,18.13
2019-06-07T06:22:37.438Z,19.20
2019-06-07T06:30:10.353Z,13.53
2019-06-07T06:32:46.454Z,13.63
2019-06-07T06:35:09.721Z,14.30
2019-06-07T06:37:41.768Z,12.53
2019-06-07T06:40:08.974Z,13.27
2019-06-07T06:42:37.403Z,12.60
2019-06-07T06:45:09.978Z,13.40
2019-06-07T06:47:38.452Z,9.63
2019-06-07T06:50:09.218Z,10.83
2019-06-07T06:52:39.926Z,11.93
2019-06-07T06:55:09.767Z,11.33
2019-06-07T06:57:41.455Z,10.60
2019-06-07T07:00:10.553Z,10.67
2019-06-07T07:03:27.055Z,10.10
2019-06-07T07:05:10.712Z,10.03
2019-06-07T07:07:40.304Z,9.80
2019-06-07T07:10:09.663Z,8.07
2019-06-07T07:12:38.070Z,7.70
2019-06-07T07:15:16.866Z,6.40
2019-06-07T07:17:53.742Z,7.27
2019-06-07T07:20:15.590Z,11.27
2019-06-07T07:22:46.436Z,7.67
2019-06-07T07:25:14.420Z,7.03
2019-06-07T07:27:44.469Z,9.00
2019-06-07T07:30:36.066Z,6.30
2019-06-07T07:32:46.711Z,6.33
2019-06-07T07:35:15.204Z,8.27
2019-06-07T07:37:45.624Z,10.60
2019-06-07T07:40:55.379Z,7.80
2019-06-07T07:42:45.208Z,8.60
2019-06-07T07:45:14.374Z,8.00
2019-06-07T07:47:58.322Z,7.70
2019-06-07T07:50:12.923Z,7.90
2019-06-07T07:52:41.375Z,7.60
2019-06-07T07:55:09.878Z,7.10
2019-06-07T07:57:38.434Z,6.57
2019-06-07T08:00:48.892Z,8.17
2019-06-07T08:02:38.517Z,10.70
2019-06-07T08:05:25.230Z,10.13
2019-06-07T08:07:38.323Z,6.23
2019-06-07T08:10:07.889Z,6.53
2019-06-07T08:12:55.502Z,7.30
2019-06-07T08:15:07.216Z,4.73
2019-06-07T08:17:35.803Z,7.63
2019-06-07T08:20:06.351Z,7.30
2019-06-07T08:22:34.769Z,4.93
2019-06-07T08:25:04.480Z,5.10
2019-06-07T08:27:33.100Z,6.10
2019-06-07T08:30:26.027Z,6.40
2019-06-07T08:32:31.644Z,6.17
2019-06-07T08:35:05.800Z,5.70
2019-06-07T08:38:14.133Z,5.60
2019-06-07T08:40:01.968Z,5.73
2019-06-07T08:42:37.330Z,5.03
2019-06-07T08:45:03.749Z,5.20
2019-06-07T08:47:31.029Z,5.90
2019-06-07T08:50:07.072Z,5.60
2019-06-07T08:52:29.720Z,5.70
2019-06-07T08:55:03.390Z,5.63
2019-06-07T08:57:28.340Z,6.30
2019-06-07T09:00:06.003Z,7.00
2019-06-07T09:02:26.890Z,5.97
2019-06-07T09:04:58.615Z,6.07
2019-06-07T09:07:25.466Z,5.10
2019-06-07T09:10:00.113Z,6.27
2019-06-07T09:12:23.999Z,5.77
2019-06-07T09:15:09.015Z,8.30
2019-06-07T09:17:22.549Z,5.60
2019-06-07T09:19:50.984Z,5.70
2019-06-07T09:22:19.412Z,6.10
2019-06-07T09:24:47.803Z,5.40
2019-06-07T09:27:16.238Z,5.57
2019-06-07T09:29:44.845Z,7.30
2019-06-07T09:32:18.096Z,7.13
2019-06-07T09:34:43.438Z,7.50
2019-06-07T09:38:02.733Z,7.47
2019-06-07T09:40:15.521Z,6.87
2019-06-07T09:42:33.059Z,7.40
2019-06-07T09:45:05.679Z,7.40
2019-06-07T09:47:33.041Z,5.87
2019-06-07T09:50:08.350Z,5.80
2019-06-07T09:52:31.870Z,5.93
2019-06-07T09:55:12.463Z,6.50
2019-06-07T09:57:31.077Z,6.63
2019-06-07T10:00:01.836Z,5.40
2019-06-07T10:02:29.644Z,5.13
2019-06-07T10:04:59.904Z,5.80
2019-06-07T10:07:31.675Z,6.40
2019-06-07T10:10:12.557Z,8.60
2019-06-07T10:12:28.511Z,6.10
2019-06-07T10:14:56.916Z,5.53
2019-06-07T10:17:25.409Z,5.37
2019-06-07T10:19:53.827Z,6.90
2019-06-07T10:22:22.254Z,6.23
2019-06-07T10:24:50.657Z,7.27
2019-06-07T10:27:19.105Z,6.10
2019-06-07T10:29:47.508Z,5.60
2019-06-07T10:32:16.044Z,6.67
2019-06-07T10:34:44.474Z,5.37
2019-06-07T10:37:15.690Z,5.93
2019-06-07T10:40:02.894Z,5.77
2019-06-07T10:42:31.532Z,7.13
2019-06-07T10:45:02.099Z,6.90
2019-06-07T10:47:30.187Z,6.00
2019-06-07T10:49:58.604Z,6.00
2019-06-07T10:52:27.459Z,6.67
2019-06-07T10:54:55.943Z,6.00
2019-06-07T10:57:24.363Z,7.53
2019-06-07T10:59:52.774Z,7.83
2019-06-07T11:02:21.210Z,7.50
2019-06-07T11:04:49.948Z,9.20
2019-06-07T11:07:18.375Z,8.17
2019-06-07T11:09:46.794Z,8.13
2019-06-07T11:12:15.481Z,9.90
2019-06-07T11:14:43.931Z,8.50
2019-06-07T11:17:13.424Z,9.27
2019-06-07T11:19:43.281Z,9.50
2019-06-07T11:22:12.332Z,6.77
2019-06-07T11:24:40.892Z,7.00
2019-06-07T11:27:11.138Z,6.80
2019-06-07T11:29:39.480Z,6.17
2019-06-07T11:32:08.385Z,6.43
2019-06-07T11:34:36.948Z,6.90
2019-06-07T11:37:07.208Z,6.80
2019-06-07T11:39:35.562Z,5.60
2019-06-07T11:42:04.042Z,7.07
2019-06-07T11:44:32.486Z,6.93
2019-06-07T11:47:00.963Z,6.17
2019-06-07T11:49:29.427Z,5.90
2019-06-07T11:51:57.870Z,5.80
2019-06-07T11:54:26.292Z,6.43
2019-06-07T11:56:54.710Z,7.77
2019-06-07T11:59:23.231Z,7.40
2019-06-07T12:01:51.715Z,6.50
2019-06-07T12:04:32.362Z,7.33
2019-06-07T12:06:50.620Z,7.43
2019-06-07T12:09:19.045Z,6.03
2019-06-07T12:11:47.848Z,7.43
2019-06-07T12:14:16.839Z,7.70
2019-06-07T12:16:45.408Z,8.47
2019-06-07T12:19:13.851Z,5.67
2019-06-07T12:21:42.286Z,5.80
2019-06-07T12:24:12.091Z,5.80
2019-06-07T12:26:40.709Z,6.60
2019-06-07T12:29:09.103Z,6.20
2019-06-07T12:31:37.537Z,5.63
2019-06-07T12:34:05.965Z,7.23
2019-06-07T12:36:34.601Z,6.07
2019-06-07T12:39:03.177Z,6.27
2019-06-07T12:41:31.583Z,5.33
2019-06-07T12:44:00.000Z,6.47
2019-06-07T12:46:28.749Z,5.30
2019-06-07T12:48:57.210Z,5.47
2019-06-07T12:51:25.636Z,6.20
2019-06-07T12:53:54.075Z,5.50
2019-06-07T12:56:24.108Z,5.13
2019-06-07T12:58:52.846Z,5.80
2019-06-07T13:01:22.856Z,5.10
2019-06-07T13:03:51.492Z,5.70
2019-06-07T13:06:19.901Z,5.83
2019-06-07T13:08:48.345Z,6.50
2019-06-07T13:11:22.289Z,6.20
2019-06-07T13:13:46.937Z,5.70
2019-06-07T13:16:16.443Z,6.10
2019-06-07T13:18:45.420Z,5.20
2019-06-07T13:21:13.828Z,4.97
2019-06-07T13:23:44.338Z,4.80
2019-06-07T13:26:12.372Z,4.77
2019-06-07T13:28:40.790Z,5.23
2019-06-07T13:31:09.205Z,4.50
2019-06-07T13:33:38.920Z,6.27
2019-06-07T13:36:07.643Z,5.90
2019-06-07T13:38:36.113Z,5.70
2019-06-07T13:41:04.598Z,5.60
2019-06-07T13:43:33.023Z,6.50
2019-06-07T13:46:01.453Z,5.63
2019-06-07T13:48:29.853Z,5.07
2019-06-07T13:50:58.629Z,5.70
2019-06-07T13:53:27.128Z,5.27
2019-06-07T13:55:55.543Z,4.23
2019-06-07T13:58:24.285Z,4.60
2019-06-07T14:00:52.840Z,5.23
2019-06-07T14:03:24.235Z,6.33
2019-06-07T14:05:51.424Z,6.73
2019-06-07T14:08:20.984Z,5.60
2019-06-07T14:10:49.674Z,4.60
2019-06-07T14:13:21.566Z,4.00
2019-06-07T14:15:50.057Z,5.70
2019-06-07T14:18:18.494Z,4.33
2019-06-07T14:20:46.927Z,6.10
2019-06-07T14:23:15.333Z,6.17
2019-06-07T14:25:43.841Z,5.10
2019-06-07T14:28:12.276Z,4.90
2019-06-07T14:30:40.756Z,4.67
2019-06-07T14:33:09.185Z,4.23
2019-06-07T14:35:37.781Z,5.50
2019-06-07T14:38:06.283Z,5.60
2019-06-07T14:40:34.682Z,4.10
2019-06-07T14:43:03.082Z,5.00
2019-06-07T14:45:32.734Z,5.10
2019-06-07T14:48:01.724Z,4.60
2019-06-07T14:50:30.304Z,5.87
2019-06-07T14:52:58.769Z,4.67
2019-06-07T14:55:27.188Z,5.20
2019-06-07T14:57:55.600Z,4.80
2019-06-07T15:00:28.296Z,4.60
2019-06-07T15:02:56.787Z,4.40
2019-06-07T15:05:31.183Z,6.70
2019-06-07T15:08:00.117Z,5.10
2019-06-07T15:10:28.712Z,4.73
2019-06-07T15:12:57.299Z,4.93
2019-06-07T15:15:26.409Z,5.07
2019-06-07T15:17:54.995Z,4.97
2019-06-07T15:20:23.484Z,4.80
2019-06-07T15:22:51.999Z,4.37
2019-06-07T15:25:20.497Z,3.93
2019-06-07T15:27:48.913Z,4.90
2019-06-07T15:30:17.562Z,6.30
2019-06-07T15:32:46.034Z,3.97
2019-06-07T15:35:15.304Z,3.90
2019-06-07T15:37:43.727Z,5.83
2019-06-07T15:40:13.477Z,5.53
2019-06-07T15:42:52.096Z,5.40
2019-06-07T15:45:14.073Z,4.37
2019-06-07T15:47:42.500Z,4.80
2019-06-07T15:50:11.944Z,5.53
2019-06-07T15:52:43.008Z,4.90
2019-06-07T15:55:11.570Z,4.80
2019-06-07T15:57:41.876Z,4.80
2019-06-07T16:00:12.884Z,4.90
2019-06-07T16:02:41.846Z,5.73
2019-06-07T16:05:10.798Z,4.90
2019-06-07T16:07:40.503Z,4.97
2019-06-07T16:10:09.803Z,5.57
2019-06-07T16:12:38.774Z,4.90
2019-06-07T16:15:08.242Z,6.33
2019-06-07T16:17:37.240Z,4.37
2019-06-07T16:20:07.485Z,5.17
2019-06-07T16:22:35.974Z,5.10
2019-06-07T16:25:06.324Z,4.07
2019-06-07T16:27:36.564Z,6.63
2019-06-07T16:30:09.999Z,6.47
2019-06-07T16:32:39.340Z,4.77
2019-06-07T16:35:09.106Z,6.90
2019-06-07T16:37:38.288Z,5.70
2019-06-07T16:40:11.445Z,7.37
2019-06-07T16:42:40.618Z,5.17
2019-06-07T16:45:11.111Z,4.83
2019-06-07T16:47:42.399Z,5.00
2019-06-07T16:50:12.024Z,4.97
2019-06-07T16:52:41.906Z,5.47
2019-06-07T16:55:11.243Z,5.57
2019-06-07T16:57:40.924Z,4.43
2019-06-07T17:00:10.890Z,8.30
2019-06-07T17:02:40.216Z,6.13
2019-06-07T17:05:09.317Z,7.83
2019-06-07T17:07:38.302Z,8.63
2019-06-07T17:10:08.986Z,5.83
2019-06-07T17:12:38.537Z,6.07
2019-06-07T17:15:08.195Z,6.17
2019-06-07T17:17:36.840Z,6.67
2019-06-07T17:20:07.256Z,6.57
2019-06-07T17:22:35.694Z,4.80
2019-06-07T17:25:09.159Z,4.60
2019-06-07T17:27:37.663Z,7.30
2019-06-07T17:30:11.163Z,4.60
2019-06-07T17:32:50.597Z,4.50
2019-06-07T17:35:10.216Z,3.60
2019-06-07T17:37:38.628Z,4.90
2019-06-07T17:40:09.106Z,5.57
2019-06-07T17:42:37.571Z,4.53
2019-06-07T17:45:09.315Z,5.30
2019-06-07T17:47:37.828Z,8.03
2019-06-07T17:50:08.663Z,6.70
2019-06-07T17:52:37.324Z,5.30
2019-06-07T17:55:09.900Z,7.90
2019-06-07T17:57:38.330Z,4.80
2019-06-07T18:00:28.285Z,9.50
2019-06-07T18:02:42.761Z,4.17
2019-06-07T18:05:14.656Z,3.13
2019-06-07T18:07:45.903Z,3.50
2019-06-07T18:10:17.372Z,6.40
2019-06-07T18:12:46.097Z,3.13
2019-06-07T18:15:15.024Z,4.70
2019-06-07T18:17:44.593Z,10.90
2019-06-07T18:20:13.651Z,3.97
2019-06-07T18:22:42.101Z,6.90
2019-06-07T18:25:10.759Z,6.27
2019-06-07T18:27:39.184Z,4.27
2019-06-07T18:30:11.640Z,2.60
2019-06-07T18:32:38.517Z,2.63
2019-06-07T18:35:07.269Z,3.40
2019-06-07T18:37:35.701Z,12.40
2019-06-07T18:40:07.157Z,2.50
2019-06-07T18:42:35.639Z,4.00
2019-06-07T18:45:08.235Z,3.13
2019-06-07T18:47:36.836Z,5.60
2019-06-07T18:50:09.087Z,6.00
2019-06-07T18:52:39.313Z,2.63
2019-06-07T18:55:09.641Z,2.70
2019-06-07T18:57:38.214Z,2.80
2019-06-07T19:00:14.741Z,2.03
2019-06-07T19:02:43.227Z,2.30
2019-06-07T19:05:12.404Z,2.60
2019-06-07T19:07:40.955Z,1.80
2019-06-07T19:10:11.500Z,7.00
2019-06-07T19:12:40.005Z,2.60
2019-06-07T19:15:10.439Z,3.50
2019-06-07T19:17:39.025Z,2.50
2019-06-07T19:20:08.482Z,6.33
2019-06-07T19:22:36.916Z,1.93
2019-06-07T19:25:06.884Z,2.43
2019-06-07T19:27:35.290Z,2.77
2019-06-07T19:30:05.027Z,1.53
2019-06-07T19:32:33.449Z,1.00
2019-06-07T19:35:01.966Z,2.80
2019-06-07T19:37:30.445Z,4.10
2019-06-07T19:39:59.866Z,1.43
2019-06-07T19:42:28.536Z,1.20
2019-06-07T19:45:09.848Z,4.83
2019-06-07T19:47:27.384Z,2.93
2019-06-07T19:49:56.694Z,2.20
2019-06-07T19:52:25.232Z,2.67
2019-06-07T19:54:53.831Z,1.90
2019-06-07T19:57:22.820Z,4.00
2019-06-07T19:59:51.339Z,1.10
2019-06-07T20:02:19.751Z,1.47
2019-06-07T20:04:48.161Z,2.00
2019-06-07T20:07:16.559Z,1.87
2019-06-07T20:09:45.009Z,6.63
2019-06-07T20:12:13.689Z,2.13
2019-06-07T20:14:42.116Z,3.70
2019-06-07T20:17:10.533Z,1.10
2019-06-07T20:19:39.040Z,1.90
2019-06-07T20:22:07.454Z,11.47
2019-06-07T20:24:38.061Z,1.87
2019-06-07T20:27:06.066Z,1.80
2019-06-07T20:29:34.562Z,1.10
2019-06-07T20:32:02.974Z,1.00
2019-06-07T20:34:31.396Z,1.63
2019-06-07T20:37:00.241Z,2.30
2019-06-07T20:39:28.768Z,1.50
2019-06-07T20:41:57.237Z,2.10
2019-06-07T20:44:25.827Z,2.90
2019-06-07T20:46:54.307Z,6.60
2019-06-07T20:49:22.720Z,1.47
2019-06-07T20:51:51.426Z,1.83
2019-06-07T20:54:19.996Z,2.77
2019-06-07T20:56:48.420Z,2.80
2019-06-07T20:59:16.831Z,4.07
2019-06-07T21:01:45.233Z,1.30
2019-06-07T21:04:13.693Z,1.27
2019-06-07T21:06:42.174Z,1.37
2019-06-07T21:09:10.596Z,2.30
2019-06-07T21:11:39.029Z,1.33
2019-06-07T21:14:08.238Z,2.33
2019-06-07T21:16:36.791Z,1.10
2019-06-07T21:19:06.302Z,1.90
2019-06-07T21:21:34.773Z,1.33
2019-06-07T21:24:03.228Z,2.73
2019-06-07T21:26:31.803Z,2.50
2019-06-07T21:29:01.281Z,2.00
2019-06-07T21:31:29.956Z,1.47
2019-06-07T21:33:58.385Z,1.47
2019-06-07T21:36:26.847Z,3.13
2019-06-07T21:38:55.345Z,2.07
2019-06-07T21:41:23.761Z,1.47
2019-06-07T21:43:52.301Z,1.30
2019-06-07T21:46:22.164Z,1.57
2019-06-07T21:48:50.606Z,2.07
2019-06-07T21:51:19.060Z,1.13
2019-06-07T21:53:47.584Z,3.90
2019-06-07T21:56:15.995Z,1.23
2019-06-07T21:58:44.432Z,3.67
2019-06-07T22:01:16.122Z,1.20
2019-06-07T22:03:44.534Z,1.57
2019-06-07T22:06:13.811Z,3.13
2019-06-07T22:08:42.431Z,1.27
2019-06-07T22:11:12.209Z,1.60
2019-06-07T22:13:40.911Z,3.07
2019-06-07T22:16:23.405Z,1.97
2019-06-07T22:18:39.498Z,1.40
2019-06-07T22:21:08.571Z,1.43
2019-06-07T22:23:37.191Z,2.00
2019-06-07T22:26:06.986Z,1.03
2019-06-07T22:28:35.601Z,1.77
2019-06-07T22:31:23.365Z,1.07
2019-06-07T22:33:51.778Z,4.80
2019-06-07T22:36:20.179Z,1.63
2019-06-07T22:38:48.603Z,18.33
2019-06-07T22:41:17.630Z,1.90
2019-06-07T22:43:46.145Z,2.63
2019-06-07T22:46:15.027Z,1.57
2019-06-07T22:48:43.681Z,1.70
2019-06-07T22:51:13.207Z,1.03
2019-06-07T22:53:42.488Z,2.20
2019-06-07T22:56:13.871Z,1.50
2019-06-07T22:58:42.420Z,2.97
2019-06-07T23:01:10.854Z,1.43
2019-06-07T23:03:39.341Z,3.40
2019-06-07T23:06:08.497Z,1.90
2019-06-07T23:08:37.058Z,1.57
2019-06-07T23:11:05.504Z,1.53
2019-06-07T23:13:33.982Z,1.80
2019-06-07T23:16:02.666Z,2.30
2019-06-07T23:18:31.127Z,1.83
2019-06-07T23:20:59.653Z,1.90
2019-06-07T23:23:28.069Z,1.93
2019-06-07T23:25:56.472Z,1.77
2019-06-07T23:28:24.931Z,2.60
2019-06-07T23:30:53.444Z,1.27
2019-06-07T23:33:21.826Z,1.53
2019-06-07T23:35:50.230Z,2.20
2019-06-07T23:38:19.173Z,2.47
2019-06-07T23:40:47.646Z,3.93
2019-06-07T23:43:17.469Z,5.90
2019-06-07T23:45:45.990Z,2.30
2019-06-07T23:48:15.379Z,3.00
2019-06-07T23:50:44.007Z,1.30
2019-06-07T23:53:13.593Z,1.60
2019-06-07T23:55:42.159Z,2.20
2019-06-07T23:58:11.832Z,1.93
